createdAt,value
2022-07-26T00:03:26.566Z,100740.66
2022-07-26T00:08:19.766Z,100703.44
2022-07-26T00:13:14.717Z,100733.63
2022-07-26T00:18:12.154Z,100735.19
2022-07-26T00:23:05.643Z,100713.63
2022-07-26T00:27:58.842Z,100715.84
2022-07-26T00:32:53.921Z,100719.91
2022-07-26T00:37:48.671Z,100731.22
2022-07-26T00:42:42.266Z,100675.38
2022-07-26T00:47:36.003Z,100705.75
2022-07-26T00:52:30.837Z,100721.16
2022-07-26T00:57:24.757Z,100731.56
2022-07-26T01:02:18.625Z,100705.22
2022-07-26T01:07:14.697Z,100734.53
2022-07-26T01:12:14.400Z,100712.91
2022-07-26T01:17:07.694Z,100718.38
2022-07-26T01:22:02.242Z,100695.44
2022-07-26T01:26:57.016Z,100706.75
2022-07-26T01:31:50.596Z,100696.75
2022-07-26T01:36:43.803Z,100696.88
2022-07-26T01:53:53.405Z,100630.03
2022-07-26T01:58:48.998Z,100553.44
2022-07-26T02:03:55.902Z,100606.34
2022-07-26T02:09:34.064Z,100656.69
2022-07-26T02:14:40.610Z,100576.66
2022-07-26T02:54:58.745Z,100597.69
2022-07-26T03:06:16.342Z,100553.19
2022-07-26T03:12:12.730Z,100716.19
2022-07-26T03:17:09.115Z,100573.63
2022-07-26T03:22:26.477Z,100668.16
2022-07-26T03:27:22.438Z,100558.84
2022-07-26T03:38:33.721Z,100656.44
2022-07-26T03:43:52.324Z,100549.13
2022-07-26T03:49:16.584Z,100559.09
2022-07-26T03:54:17.055Z,100501.94
2022-07-26T03:59:18.838Z,100636.16
2022-07-26T04:11:22.972Z,100709.00
2022-07-26T04:36:24.311Z,100608.53
2022-07-26T04:41:20.228Z,100653.88
2022-07-26T04:46:14.058Z,100565.94
2022-07-26T04:51:07.773Z,100706.28
2022-07-26T04:56:01.209Z,100651.63
2022-07-26T05:01:09.145Z,100684.78
2022-07-26T05:06:06.137Z,100695.97
2022-07-26T05:10:59.762Z,100613.44
2022-07-26T05:16:01.839Z,100696.72
2022-07-26T05:21:23.506Z,100477.53
2022-07-26T05:26:32.714Z,100709.78
2022-07-26T05:31:28.321Z,100511.41
2022-07-26T05:36:25.788Z,100617.00
2022-07-26T05:41:24.851Z,100545.19
2022-07-26T05:46:22.547Z,100681.09
2022-07-26T05:51:19.988Z,100493.91
2022-07-26T05:56:25.182Z,100632.63
2022-07-26T06:01:22.121Z,100519.75
2022-07-26T06:06:20.547Z,100654.50
2022-07-26T06:11:14.590Z,100699.13
2022-07-26T06:16:09.816Z,100589.47
2022-07-26T06:21:04.751Z,100534.19
2022-07-26T06:25:59.476Z,100502.09
2022-07-26T06:30:57.875Z,100610.03
2022-07-26T06:35:54.688Z,100464.00
2022-07-26T06:40:55.775Z,100585.81
2022-07-26T06:45:54.173Z,100625.72
2022-07-26T06:50:50.558Z,100565.09
2022-07-26T06:55:45.033Z,100630.78
2022-07-26T07:00:40.507Z,100589.16
2022-07-26T07:05:36.811Z,100498.41
2022-07-26T07:10:32.844Z,100493.25
2022-07-26T07:15:30.007Z,100489.81
2022-07-26T07:20:25.445Z,100638.97
2022-07-26T07:25:27.375Z,100561.88
2022-07-26T07:30:28.052Z,100603.50
2022-07-26T07:35:24.304Z,100535.31
2022-07-26T07:40:27.753Z,100554.69
2022-07-26T07:45:24.780Z,100585.41
2022-07-26T07:50:28.516Z,100619.41
2022-07-26T07:55:41.410Z,100616.72
2022-07-26T08:00:42.448Z,100525.69
2022-07-26T08:05:40.327Z,100522.56
2022-07-26T08:10:51.777Z,100614.47
2022-07-26T08:15:46.280Z,100608.31
2022-07-26T08:20:46.414Z,100605.59
2022-07-26T08:25:55.106Z,100531.03
2022-07-26T08:30:53.166Z,100480.75
2022-07-26T08:35:58.629Z,100596.00
2022-07-26T08:40:54.801Z,100454.69
2022-07-26T08:45:51.008Z,100469.75
2022-07-26T08:50:55.541Z,100531.66
2022-07-26T08:56:06.802Z,100520.09
2022-07-26T09:01:14.393Z,100460.44
2022-07-26T09:06:20.680Z,100504.44
2022-07-26T09:11:33.889Z,100451.63
2022-07-26T09:16:31.264Z,100596.03
2022-07-26T09:21:31.152Z,100524.75
2022-07-26T09:26:32.193Z,100432.56
2022-07-26T09:31:25.777Z,100408.00
2022-07-26T09:36:25.070Z,100543.44
2022-07-26T09:41:20.698Z,100515.31
2022-07-26T09:46:21.519Z,100426.56
2022-07-26T09:51:44.819Z,100407.34
2022-07-26T09:56:47.050Z,100501.38
2022-07-26T10:01:43.152Z,100449.50
2022-07-26T10:06:36.884Z,100458.88
2022-07-26T10:11:40.331Z,100392.53
2022-07-26T10:16:34.591Z,100398.69
2022-07-26T10:21:31.602Z,100493.97
2022-07-26T10:26:45.790Z,100471.19
2022-07-26T10:31:42.132Z,100428.75
2022-07-26T10:36:42.636Z,100444.06
2022-07-26T10:41:40.299Z,100524.19
2022-07-26T10:46:37.191Z,100326.97
2022-07-26T10:51:35.307Z,100487.72
2022-07-26T10:56:33.362Z,100368.44
2022-07-26T11:01:38.746Z,100360.59
2022-07-26T11:06:32.721Z,100469.13
2022-07-26T11:11:31.040Z,100405.63
2022-07-26T11:16:29.780Z,100469.56
2022-07-26T11:21:26.502Z,100355.28
2022-07-26T11:26:23.611Z,100485.97
2022-07-26T11:31:23.654Z,100441.19
2022-07-26T11:36:46.920Z,100339.97
2022-07-26T11:41:41.994Z,100426.41
2022-07-26T11:46:50.268Z,100393.41
2022-07-26T11:52:01.158Z,100388.22
2022-07-26T11:56:59.593Z,100373.28
2022-07-26T12:01:54.304Z,100293.09
2022-07-26T12:06:52.047Z,100398.50
2022-07-26T12:11:48.254Z,100339.25
2022-07-26T12:16:43.012Z,100424.72
2022-07-26T12:21:44.365Z,100327.81
2022-07-26T12:26:40.989Z,100351.75
2022-07-26T12:31:39.916Z,100220.44
2022-07-26T12:36:35.507Z,100301.91
2022-07-26T12:41:37.488Z,100266.44
2022-07-26T12:46:34.597Z,100289.63
2022-07-26T12:51:32.529Z,100296.69
2022-07-26T12:56:26.122Z,100254.44
2022-07-26T13:01:19.757Z,100312.06
2022-07-26T13:06:14.530Z,100324.22
2022-07-26T13:11:09.813Z,100262.78
2022-07-26T13:16:06.654Z,100280.13
2022-07-26T13:21:02.926Z,100371.47
2022-07-26T13:25:56.344Z,100299.16
2022-07-26T13:30:52.118Z,100243.00
2022-07-26T13:35:45.569Z,100360.50
2022-07-26T13:40:43.688Z,100278.22
2022-07-26T13:45:55.940Z,100235.53
2022-07-26T13:50:49.965Z,100270.81
2022-07-26T13:55:47.289Z,100357.41
2022-07-26T14:00:42.172Z,100325.84
2022-07-26T14:05:36.905Z,100351.25
2022-07-26T14:10:30.277Z,100306.41
2022-07-26T14:15:23.857Z,100288.50
2022-07-26T14:20:20.008Z,100185.19
2022-07-26T14:25:15.207Z,100236.00
2022-07-26T14:30:09.065Z,100327.00
2022-07-26T14:35:02.509Z,100268.19
2022-07-26T14:39:56.079Z,100276.06
2022-07-26T14:44:52.928Z,100288.97
2022-07-26T14:49:46.072Z,100332.63
2022-07-26T14:54:40.318Z,100132.75
2022-07-26T14:59:33.882Z,100317.09
2022-07-26T15:04:35.590Z,100245.50
2022-07-26T15:09:31.620Z,100267.16
2022-07-26T15:14:33.203Z,100204.16
2022-07-26T15:19:32.171Z,100150.25
2022-07-26T15:24:39.561Z,100131.03
2022-07-26T15:29:37.461Z,100266.22
2022-07-26T15:34:42.280Z,100147.44
2022-07-26T15:39:52.594Z,100242.91
2022-07-26T15:44:48.011Z,100210.91
2022-07-26T15:49:41.731Z,100198.75
2022-07-26T15:54:39.528Z,100249.84
2022-07-26T15:59:33.129Z,100079.94
2022-07-26T16:04:29.698Z,100263.63
2022-07-26T16:09:23.246Z,100228.44
2022-07-26T16:14:18.773Z,100137.63
2022-07-26T16:19:15.735Z,100136.44
2022-07-26T16:24:19.499Z,100144.16
2022-07-26T16:29:16.017Z,100235.41
2022-07-26T16:34:15.998Z,100100.53
2022-07-26T16:39:14.018Z,100295.63
2022-07-26T16:44:17.583Z,100300.28
2022-07-26T16:49:18.680Z,100131.94
2022-07-26T16:54:12.297Z,100131.66
2022-07-26T16:59:10.301Z,100101.47
2022-07-26T17:04:04.634Z,100254.50
2022-07-26T17:08:59.474Z,100164.41
2022-07-26T17:13:55.113Z,100301.00
2022-07-26T17:18:48.754Z,100302.94
2022-07-26T17:23:48.068Z,100256.56
2022-07-26T17:28:46.085Z,100163.94
2022-07-26T17:33:44.226Z,100145.59
2022-07-26T17:38:40.954Z,100204.00
2022-07-26T17:43:40.551Z,100142.94
2022-07-26T17:48:35.356Z,100224.53
2022-07-26T17:53:32.058Z,100213.47
2022-07-26T17:58:28.296Z,100165.31
2022-07-26T18:03:23.364Z,100127.75
2022-07-26T18:08:27.303Z,100283.44
2022-07-26T18:13:20.786Z,100196.63
2022-07-26T18:18:28.001Z,100143.03
2022-07-26T18:23:23.845Z,100178.13
2022-07-26T18:28:17.637Z,100322.06
2022-07-26T18:33:17.772Z,100207.81
2022-07-26T18:38:11.265Z,100127.69
2022-07-26T18:43:06.175Z,100191.78
2022-07-26T18:48:02.434Z,100238.03
2022-07-26T18:52:57.034Z,100301.13
2022-07-26T18:57:55.909Z,100206.91
2022-07-26T19:02:54.833Z,100216.59
2022-07-26T19:07:48.512Z,100173.53
2022-07-26T19:12:50.200Z,100220.28
2022-07-26T19:17:46.862Z,100216.22
2022-07-26T19:22:44.286Z,100346.69
2022-07-26T19:27:38.839Z,100168.72
2022-07-26T19:32:33.760Z,100219.09
2022-07-26T19:37:37.618Z,100265.63
2022-07-26T19:42:33.192Z,100202.25
2022-07-26T19:47:26.899Z,100216.84
2022-07-26T19:52:20.689Z,100118.97
2022-07-26T19:57:14.810Z,100222.47
2022-07-26T20:02:09.895Z,100332.63
2022-07-26T20:07:07.465Z,100327.91
2022-07-26T20:12:01.777Z,100275.53
2022-07-26T20:16:57.200Z,100280.31
2022-07-26T20:21:53.005Z,100288.19
2022-07-26T20:26:46.663Z,100122.84
2022-07-26T20:31:40.539Z,100236.72
2022-07-26T20:36:39.062Z,100222.38
2022-07-26T20:41:37.831Z,100346.25
2022-07-26T20:46:42.965Z,100355.28
2022-07-26T20:51:49.492Z,100138.50
2022-07-26T20:56:52.660Z,100224.31
2022-07-26T21:01:50.918Z,100336.44
2022-07-26T21:06:45.964Z,100243.53
2022-07-26T21:11:42.662Z,100293.63
2022-07-26T21:17:40.042Z,100135.34
2022-07-26T21:22:18.471Z,100167.97
2022-07-26T21:27:44.570Z,100194.13
2022-07-26T21:33:02.791Z,100187.44
2022-07-26T21:38:18.655Z,100177.03
2022-07-26T21:43:34.023Z,100291.84
2022-07-26T21:48:29.074Z,100295.91
2022-07-26T21:53:27.806Z,100346.34
2022-07-26T21:58:27.759Z,100148.19
2022-07-26T22:03:21.709Z,100180.44
2022-07-26T22:08:17.253Z,100300.88
2022-07-26T22:13:12.269Z,100235.31
2022-07-26T22:18:06.884Z,100229.97
2022-07-26T22:23:03.954Z,100198.84
2022-07-26T22:27:59.508Z,100274.97
2022-07-26T22:32:59.585Z,100149.00
2022-07-26T22:37:56.417Z,100312.09
2022-07-26T22:42:50.189Z,100221.63
2022-07-26T22:47:55.755Z,100137.72
2022-07-26T22:52:49.893Z,100324.63
2022-07-26T22:57:43.660Z,100274.47
2022-07-26T23:02:37.542Z,100278.88
2022-07-26T23:07:33.476Z,100207.28
2022-07-26T23:12:30.971Z,100132.28
2022-07-26T23:17:24.410Z,100335.94
2022-07-26T23:22:18.007Z,100293.28
2022-07-26T23:27:18.063Z,100294.34
2022-07-26T23:32:13.210Z,100304.38
2022-07-26T23:37:06.791Z,100202.94
2022-07-26T23:42:02.896Z,100257.59
2022-07-26T23:46:57.826Z,100343.66
2022-07-26T23:51:51.839Z,100295.22
2022-07-26T23:56:45.938Z,100216.53
